sensor_id;sensor_type;location;lat;lon;timestamp;temperature;humidity
2022;DHT22;1015;49.756;6.994;2023-02-28T00:00:00;-2.90;99.90
2022;DHT22;1015;49.756;6.994;2023-02-28T00:02:33;-2.90;99.90
2022;DHT22;1015;49.756;6.994;2023-02-28T00:05:00;-2.80;99.90
2022;DHT22;1015;49.756;6.994;2023-02-28T00:07:29;-2.80;99.90
2022;DHT22;1015;49.756;6.994;2023-02-28T00:09:56;-2.80;99.90
2022;DHT22;1015;49.756;6.994;2023-02-28T00:12:23;-2.90;99.90
2022;DHT22;1015;49.756;6.994;2023-02-28T00:14:50;-2.70;99.90
2022;DHT22;1015;49.756;6.994;2023-02-28T00:17:19;-2.70;99.90
2022;DHT22;1015;49.756;6.994;2023-02-28T00:19:46;-2.70;99.90
2022;DHT22;1015;49.756;6.994;2023-02-28T00:22:14;-2.90;99.90
2022;DHT22;1015;49.756;6.994;2023-02-28T00:24:41;-2.90;99.90
2022;DHT22;1015;49.756;6.994;2023-02-28T00:27:08;-3.00;99.90
2022;DHT22;1015;49.756;6.994;2023-02-28T00:29:36;-2.80;99.90
2022;DHT22;1015;49.756;6.994;2023-02-28T00:32:04;-2.90;99.90
2022;DHT22;1015;49.756;6.994;2023-02-28T00:34:33;-2.90;99.90
2022;DHT22;1015;49.756;6.994;2023-02-28T00:37:03;-2.80;99.90
2022;DHT22;1015;49.756;6.994;2023-02-28T00:39:31;-2.90;99.90
2022;DHT22;1015;49.756;6.994;2023-02-28T00:41:59;-3.00;99.90
2022;DHT22;1015;49.756;6.994;2023-02-28T00:44:26;-3.10;99.90
2022;DHT22;1015;49.756;6.994;2023-02-28T00:46:53;-2.90;99.90
2022;DHT22;1015;49.756;6.994;2023-02-28T00:49:21;-2.90;99.90
2022;DHT22;1015;49.756;6.994;2023-02-28T00:51:49;-3.00;99.90
2022;DHT22;1015;49.756;6.994;2023-02-28T00:54:18;-3.00;99.90
2022;DHT22;1015;49.756;6.994;2023-02-28T00:56:45;-3.10;99.90
2022;DHT22;1015;49.756;6.994;2023-02-28T00:59:13;-3.10;99.90
2022;DHT22;1015;49.756;6.994;2023-02-28T01:01:40;-3.00;99.90
2022;DHT22;1015;49.756;6.994;2023-02-28T01:04:07;-3.10;99.90
2022;DHT22;1015;49.756;6.994;2023-02-28T01:06:34;-3.30;99.90
2022;DHT22;1015;49.756;6.994;2023-02-28T01:09:03;-3.40;99.90
2022;DHT22;1015;49.756;6.994;2023-02-28T01:11:30;-3.40;99.90
2022;DHT22;1015;49.756;6.994;2023-02-28T01:13:57;-3.40;99.90
2022;DHT22;1015;49.756;6.994;2023-02-28T01:16:25;-3.30;99.90
2022;DHT22;1015;49.756;6.994;2023-02-28T01:18:52;-3.40;99.90
2022;DHT22;1015;49.756;6.994;2023-02-28T01:21:21;-3.40;99.90
2022;DHT22;1015;49.756;6.994;2023-02-28T01:23:48;-3.50;99.90
2022;DHT22;1015;49.756;6.994;2023-02-28T01:26:18;-3.60;99.90
2022;DHT22;1015;49.756;6.994;2023-02-28T01:28:46;-3.40;99.90
2022;DHT22;1015;49.756;6.994;2023-02-28T01:31:14;-3.50;99.90
2022;DHT22;1015;49.756;6.994;2023-02-28T01:33:41;-3.60;99.90
2022;DHT22;1015;49.756;6.994;2023-02-28T01:36:11;-3.60;99.90
2022;DHT22;1015;49.756;6.994;2023-02-28T01:38:38;-3.70;99.90
2022;DHT22;1015;49.756;6.994;2023-02-28T01:41:06;-3.70;99.90
2022;DHT22;1015;49.756;6.994;2023-02-28T01:43:54;-3.80;99.90
2022;DHT22;1015;49.756;6.994;2023-02-28T01:46:21;-3.90;99.90
2022;DHT22;1015;49.756;6.994;2023-02-28T01:48:53;-3.90;99.90
2022;DHT22;1015;49.756;6.994;2023-02-28T01:51:25;-3.90;99.90
2022;DHT22;1015;49.756;6.994;2023-02-28T01:53:56;-3.90;99.90
2022;DHT22;1015;49.756;6.994;2023-02-28T01:56:26;-4.10;99.90
2022;DHT22;1015;49.756;6.994;2023-02-28T01:58:56;-4.10;99.90
2022;DHT22;1015;49.756;6.994;2023-02-28T02:01:25;-4.20;99.90
2022;DHT22;1015;49.756;6.994;2023-02-28T02:03:54;-4.10;99.90
2022;DHT22;1015;49.756;6.994;2023-02-28T02:06:22;-4.10;99.90
2022;DHT22;1015;49.756;6.994;2023-02-28T02:08:49;-4.00;99.90
2022;DHT22;1015;49.756;6.994;2023-02-28T02:11:19;-4.10;99.90
2022;DHT22;1015;49.756;6.994;2023-02-28T02:14:15;-4.20;99.90
2022;DHT22;1015;49.756;6.994;2023-02-28T02:16:55;-4.20;99.90
2022;DHT22;1015;49.756;6.994;2023-02-28T02:22:42;-4.30;99.90
2022;DHT22;1015;49.756;6.994;2023-02-28T02:25:22;-4.30;99.90
2022;DHT22;1015;49.756;6.994;2023-02-28T02:28:35;-4.30;99.90
2022;DHT22;1015;49.756;6.994;2023-02-28T02:31:35;-4.30;99.90
2022;DHT22;1015;49.756;6.994;2023-02-28T02:34:34;-4.30;99.90
2022;DHT22;1015;49.756;6.994;2023-02-28T02:37:13;-4.30;99.90
2022;DHT22;1015;49.756;6.994;2023-02-28T02:39:48;-4.30;99.90
2022;DHT22;1015;49.756;6.994;2023-02-28T02:42:21;-4.40;99.90
2022;DHT22;1015;49.756;6.994;2023-02-28T02:44:53;-4.40;99.90
2022;DHT22;1015;49.756;6.994;2023-02-28T02:47:24;-4.40;99.90
2022;DHT22;1015;49.756;6.994;2023-02-28T02:49:56;-4.40;99.90
2022;DHT22;1015;49.756;6.994;2023-02-28T02:54:55;-4.50;99.90
2022;DHT22;1015;49.756;6.994;2023-02-28T02:57:26;-4.60;99.90
2022;DHT22;1015;49.756;6.994;2023-02-28T02:59:57;-4.70;99.90
2022;DHT22;1015;49.756;6.994;2023-02-28T03:02:25;-4.60;99.90
2022;DHT22;1015;49.756;6.994;2023-02-28T03:05:01;-4.60;99.90
2022;DHT22;1015;49.756;6.994;2023-02-28T03:07:29;-4.60;99.90
2022;DHT22;1015;49.756;6.994;2023-02-28T03:09:57;-4.60;99.90
2022;DHT22;1015;49.756;6.994;2023-02-28T03:12:31;-4.50;99.90
2022;DHT22;1015;49.756;6.994;2023-02-28T03:15:06;-4.60;99.90
2022;DHT22;1015;49.756;6.994;2023-02-28T03:18:01;-4.70;99.90
2022;DHT22;1015;49.756;6.994;2023-02-28T03:20:38;-4.70;99.90
2022;DHT22;1015;49.756;6.994;2023-02-28T03:23:14;-4.80;99.90
2022;DHT22;1015;49.756;6.994;2023-02-28T03:25:54;-4.90;99.90
2022;DHT22;1015;49.756;6.994;2023-02-28T03:28:30;-4.80;99.90
2022;DHT22;1015;49.756;6.994;2023-02-28T03:31:00;-4.70;99.90
2022;DHT22;1015;49.756;6.994;2023-02-28T03:33:32;-4.70;99.90
2022;DHT22;1015;49.756;6.994;2023-02-28T03:36:06;-4.60;99.90
2022;DHT22;1015;49.756;6.994;2023-02-28T03:38:36;-4.70;99.90
2022;DHT22;1015;49.756;6.994;2023-02-28T03:41:13;-4.70;99.90
2022;DHT22;1015;49.756;6.994;2023-02-28T03:43:45;-4.80;99.90
2022;DHT22;1015;49.756;6.994;2023-02-28T03:46:17;-4.70;99.90
2022;DHT22;1015;49.756;6.994;2023-02-28T03:48:51;-4.80;99.90
2022;DHT22;1015;49.756;6.994;2023-02-28T03:51:22;-4.70;99.90
2022;DHT22;1015;49.756;6.994;2023-02-28T03:53:52;-4.60;99.90
2022;DHT22;1015;49.756;6.994;2023-02-28T03:56:23;-4.60;99.90
2022;DHT22;1015;49.756;6.994;2023-02-28T03:58:55;-4.70;99.90
2022;DHT22;1015;49.756;6.994;2023-02-28T04:01:25;-4.60;99.90
2022;DHT22;1015;49.756;6.994;2023-02-28T04:03:54;-4.60;99.90
2022;DHT22;1015;49.756;6.994;2023-02-28T04:06:23;-4.60;99.90
2022;DHT22;1015;49.756;6.994;2023-02-28T04:08:50;-4.70;99.90
2022;DHT22;1015;49.756;6.994;2023-02-28T04:11:21;-4.70;99.90
2022;DHT22;1015;49.756;6.994;2023-02-28T04:13:48;-4.70;99.90
2022;DHT22;1015;49.756;6.994;2023-02-28T04:16:16;-4.60;99.90
2022;DHT22;1015;49.756;6.994;2023-02-28T04:18:43;-4.70;99.90
2022;DHT22;1015;49.756;6.994;2023-02-28T04:21:10;-4.60;99.90
2022;DHT22;1015;49.756;6.994;2023-02-28T04:23:38;-4.60;99.90
2022;DHT22;1015;49.756;6.994;2023-02-28T04:26:06;-4.60;99.90
2022;DHT22;1015;49.756;6.994;2023-02-28T04:28:33;-4.60;99.90
2022;DHT22;1015;49.756;6.994;2023-02-28T04:31:01;-4.60;99.90
2022;DHT22;1015;49.756;6.994;2023-02-28T04:33:31;-4.70;99.90
2022;DHT22;1015;49.756;6.994;2023-02-28T04:35:59;-4.80;99.90
2022;DHT22;1015;49.756;6.994;2023-02-28T04:38:26;-4.80;99.90
2022;DHT22;1015;49.756;6.994;2023-02-28T04:40:57;-4.70;99.90
2022;DHT22;1015;49.756;6.994;2023-02-28T04:43:24;-4.80;99.90
2022;DHT22;1015;49.756;6.994;2023-02-28T04:45:51;-4.80;99.90
2022;DHT22;1015;49.756;6.994;2023-02-28T04:48:19;-4.80;99.90
2022;DHT22;1015;49.756;6.994;2023-02-28T04:50:46;-4.80;99.90
2022;DHT22;1015;49.756;6.994;2023-02-28T04:53:13;-4.70;99.90
2022;DHT22;1015;49.756;6.994;2023-02-28T04:55:40;-4.60;99.90
2022;DHT22;1015;49.756;6.994;2023-02-28T04:58:09;-4.60;99.90
2022;DHT22;1015;49.756;6.994;2023-02-28T05:00:35;-4.60;99.90
2022;DHT22;1015;49.756;6.994;2023-02-28T05:03:02;-4.60;99.90
2022;DHT22;1015;49.756;6.994;2023-02-28T05:05:30;-4.60;99.90
2022;DHT22;1015;49.756;6.994;2023-02-28T05:07:56;-4.60;99.90
2022;DHT22;1015;49.756;6.994;2023-02-28T05:10:23;-4.60;99.90
2022;DHT22;1015;49.756;6.994;2023-02-28T05:12:50;-4.60;99.90
2022;DHT22;1015;49.756;6.994;2023-02-28T05:15:19;-4.50;99.90
2022;DHT22;1015;49.756;6.994;2023-02-28T05:17:45;-4.50;99.90
2022;DHT22;1015;49.756;6.994;2023-02-28T05:20:12;-4.50;99.90
2022;DHT22;1015;49.756;6.994;2023-02-28T05:22:40;-4.60;99.90
2022;DHT22;1015;49.756;6.994;2023-02-28T05:25:10;-4.60;99.90
2022;DHT22;1015;49.756;6.994;2023-02-28T05:27:39;-4.70;99.90
2022;DHT22;1015;49.756;6.994;2023-02-28T05:30:07;-4.60;99.90
2022;DHT22;1015;49.756;6.994;2023-02-28T05:32:37;-4.50;99.90
2022;DHT22;1015;49.756;6.994;2023-02-28T05:35:05;-4.40;99.90
2022;DHT22;1015;49.756;6.994;2023-02-28T05:37:31;-4.50;99.90
2022;DHT22;1015;49.756;6.994;2023-02-28T05:39:58;-4.50;99.90
2022;DHT22;1015;49.756;6.994;2023-02-28T05:42:25;-4.50;99.90
2022;DHT22;1015;49.756;6.994;2023-02-28T05:44:52;-4.50;99.90
2022;DHT22;1015;49.756;6.994;2023-02-28T05:47:19;-4.50;99.90
2022;DHT22;1015;49.756;6.994;2023-02-28T05:49:47;-4.60;99.90
2022;DHT22;1015;49.756;6.994;2023-02-28T05:52:14;-4.60;99.90
2022;DHT22;1015;49.756;6.994;2023-02-28T05:54:41;-4.70;99.90
2022;DHT22;1015;49.756;6.994;2023-02-28T05:57:08;-4.70;99.90
2022;DHT22;1015;49.756;6.994;2023-02-28T05:59:35;-4.70;99.90
2022;DHT22;1015;49.756;6.994;2023-02-28T06:02:05;-4.80;99.90
2022;DHT22;1015;49.756;6.994;2023-02-28T06:04:32;-4.70;99.90
2022;DHT22;1015;49.756;6.994;2023-02-28T06:07:01;-4.70;99.90
2022;DHT22;1015;49.756;6.994;2023-02-28T06:09:29;-4.80;99.90
2022;DHT22;1015;49.756;6.994;2023-02-28T06:11:58;-4.80;99.90
2022;DHT22;1015;49.756;6.994;2023-02-28T06:14:25;-4.70;99.90
2022;DHT22;1015;49.756;6.994;2023-02-28T06:16:52;-4.80;99.90
2022;DHT22;1015;49.756;6.994;2023-02-28T06:19:19;-4.80;99.90
2022;DHT22;1015;49.756;6.994;2023-02-28T06:21:50;-4.90;99.90
2022;DHT22;1015;49.756;6.994;2023-02-28T06:24:19;-4.80;99.90
2022;DHT22;1015;49.756;6.994;2023-02-28T06:26:46;-4.80;99.90
2022;DHT22;1015;49.756;6.994;2023-02-28T06:29:13;-4.80;99.90
2022;DHT22;1015;49.756;6.994;2023-02-28T06:31:42;-4.80;99.90
2022;DHT22;1015;49.756;6.994;2023-02-28T06:34:09;-4.70;99.90
2022;DHT22;1015;49.756;6.994;2023-02-28T06:36:37;-4.80;99.90
2022;DHT22;1015;49.756;6.994;2023-02-28T06:39:04;-4.70;99.90
2022;DHT22;1015;49.756;6.994;2023-02-28T06:41:33;-4.70;99.90
2022;DHT22;1015;49.756;6.994;2023-02-28T06:44:03;-4.70;99.90
2022;DHT22;1015;49.756;6.994;2023-02-28T06:46:31;-4.70;99.90
2022;DHT22;1015;49.756;6.994;2023-02-28T06:48:58;-4.70;99.90
2022;DHT22;1015;49.756;6.994;2023-02-28T06:51:25;-4.60;99.90
2022;DHT22;1015;49.756;6.994;2023-02-28T06:53:52;-4.60;99.90
2022;DHT22;1015;49.756;6.994;2023-02-28T06:56:20;-4.60;99.90
2022;DHT22;1015;49.756;6.994;2023-02-28T06:58:49;-4.60;99.90
2022;DHT22;1015;49.756;6.994;2023-02-28T07:01:18;-4.50;99.90
2022;DHT22;1015;49.756;6.994;2023-02-28T07:03:46;-4.40;99.90
2022;DHT22;1015;49.756;6.994;2023-02-28T07:06:17;-4.40;99.90
2022;DHT22;1015;49.756;6.994;2023-02-28T07:08:44;-4.30;99.90
2022;DHT22;1015;49.756;6.994;2023-02-28T07:11:11;-4.30;99.90
2022;DHT22;1015;49.756;6.994;2023-02-28T07:13:38;-4.40;99.90
2022;DHT22;1015;49.756;6.994;2023-02-28T07:16:10;-4.30;99.90
2022;DHT22;1015;49.756;6.994;2023-02-28T07:18:38;-4.20;99.90
2022;DHT22;1015;49.756;6.994;2023-02-28T07:21:07;-4.20;99.90
2022;DHT22;1015;49.756;6.994;2023-02-28T07:23:34;-4.20;99.90
2022;DHT22;1015;49.756;6.994;2023-02-28T07:26:01;-4.10;99.90
2022;DHT22;1015;49.756;6.994;2023-02-28T07:28:28;-4.00;99.90
2022;DHT22;1015;49.756;6.994;2023-02-28T07:30:55;-3.90;99.90
2022;DHT22;1015;49.756;6.994;2023-02-28T07:33:23;-3.90;99.90
2022;DHT22;1015;49.756;6.994;2023-02-28T07:35:50;-3.80;99.90
2022;DHT22;1015;49.756;6.994;2023-02-28T07:38:17;-3.70;99.90
2022;DHT22;1015;49.756;6.994;2023-02-28T07:40:44;-3.60;99.90
2022;DHT22;1015;49.756;6.994;2023-02-28T07:43:11;-3.60;99.90
2022;DHT22;1015;49.756;6.994;2023-02-28T07:45:38;-3.50;99.90
2022;DHT22;1015;49.756;6.994;2023-02-28T07:48:05;-3.50;99.90
2022;DHT22;1015;49.756;6.994;2023-02-28T07:50:33;-3.50;99.90
2022;DHT22;1015;49.756;6.994;2023-02-28T07:53:00;-3.40;99.90
2022;DHT22;1015;49.756;6.994;2023-02-28T07:55:27;-3.30;99.90
2022;DHT22;1015;49.756;6.994;2023-02-28T07:57:54;-3.30;99.90
2022;DHT22;1015;49.756;6.994;2023-02-28T08:00:22;-3.20;99.90
2022;DHT22;1015;49.756;6.994;2023-02-28T08:02:49;-3.10;99.90
2022;DHT22;1015;49.756;6.994;2023-02-28T08:05:16;-3.10;99.90
2022;DHT22;1015;49.756;6.994;2023-02-28T08:07:45;-3.10;99.90
2022;DHT22;1015;49.756;6.994;2023-02-28T08:10:13;-3.10;99.90
2022;DHT22;1015;49.756;6.994;2023-02-28T08:12:40;-3.10;99.90
2022;DHT22;1015;49.756;6.994;2023-02-28T08:15:08;-3.00;99.90
2022;DHT22;1015;49.756;6.994;2023-02-28T08:17:35;-2.80;99.90
2022;DHT22;1015;49.756;6.994;2023-02-28T08:20:02;-2.70;99.90
2022;DHT22;1015;49.756;6.994;2023-02-28T08:22:29;-2.90;99.90
2022;DHT22;1015;49.756;6.994;2023-02-28T08:24:57;-2.80;99.90
2022;DHT22;1015;49.756;6.994;2023-02-28T08:27:24;-2.80;99.90
2022;DHT22;1015;49.756;6.994;2023-02-28T08:29:51;-2.80;99.90
2022;DHT22;1015;49.756;6.994;2023-02-28T08:32:18;-2.70;99.90
2022;DHT22;1015;49.756;6.994;2023-02-28T08:34:45;-2.60;99.90
2022;DHT22;1015;49.756;6.994;2023-02-28T08:37:12;-2.40;99.90
2022;DHT22;1015;49.756;6.994;2023-02-28T08:39:39;-2.40;99.90
2022;DHT22;1015;49.756;6.994;2023-02-28T08:42:07;-2.40;99.90
2022;DHT22;1015;49.756;6.994;2023-02-28T08:44:34;-2.30;99.90
2022;DHT22;1015;49.756;6.994;2023-02-28T08:47:01;-2.30;99.90
2022;DHT22;1015;49.756;6.994;2023-02-28T08:49:28;-2.30;99.90
2022;DHT22;1015;49.756;6.994;2023-02-28T08:51:55;-2.20;99.90
2022;DHT22;1015;49.756;6.994;2023-02-28T08:54:22;-2.20;99.90
2022;DHT22;1015;49.756;6.994;2023-02-28T08:56:49;-2.10;99.90
2022;DHT22;1015;49.756;6.994;2023-02-28T08:59:18;-1.90;99.90
2022;DHT22;1015;49.756;6.994;2023-02-28T09:01:45;-1.70;99.90
2022;DHT22;1015;49.756;6.994;2023-02-28T09:04:12;-1.60;99.90
2022;DHT22;1015;49.756;6.994;2023-02-28T09:06:39;-1.50;99.90
2022;DHT22;1015;49.756;6.994;2023-02-28T09:09:06;-1.50;99.90
2022;DHT22;1015;49.756;6.994;2023-02-28T09:11:33;-1.50;99.90
2022;DHT22;1015;49.756;6.994;2023-02-28T09:14:01;-1.40;99.90
2022;DHT22;1015;49.756;6.994;2023-02-28T09:16:31;-1.20;99.90
2022;DHT22;1015;49.756;6.994;2023-02-28T09:18:58;-1.30;99.90
2022;DHT22;1015;49.756;6.994;2023-02-28T09:21:25;-1.40;99.90
2022;DHT22;1015;49.756;6.994;2023-02-28T09:23:52;-1.30;99.90
2022;DHT22;1015;49.756;6.994;2023-02-28T09:26:20;-1.30;99.90
2022;DHT22;1015;49.756;6.994;2023-02-28T09:28:48;-1.20;99.90
2022;DHT22;1015;49.756;6.994;2023-02-28T09:31:16;-1.10;99.90
2022;DHT22;1015;49.756;6.994;2023-02-28T09:33:47;-1.10;99.90
2022;DHT22;1015;49.756;6.994;2023-02-28T09:36:14;-0.90;99.90
2022;DHT22;1015;49.756;6.994;2023-02-28T09:38:42;-0.70;99.90
2022;DHT22;1015;49.756;6.994;2023-02-28T09:41:14;-0.70;99.90
2022;DHT22;1015;49.756;6.994;2023-02-28T09:43:45;-0.40;99.90
2022;DHT22;1015;49.756;6.994;2023-02-28T09:46:24;-0.10;99.90
2022;DHT22;1015;49.756;6.994;2023-02-28T09:48:54;0.20;99.90
2022;DHT22;1015;49.756;6.994;2023-02-28T09:51:30;0.30;99.90
2022;DHT22;1015;49.756;6.994;2023-02-28T09:54:00;0.20;99.90
2022;DHT22;1015;49.756;6.994;2023-02-28T09:56:33;0.20;99.90
2022;DHT22;1015;49.756;6.994;2023-02-28T09:59:04;0.20;99.90
2022;DHT22;1015;49.756;6.994;2023-02-28T10:01:38;0.40;99.90
2022;DHT22;1015;49.756;6.994;2023-02-28T10:04:10;0.20;99.90
2022;DHT22;1015;49.756;6.994;2023-02-28T10:06:43;0.00;99.90
2022;DHT22;1015;49.756;6.994;2023-02-28T10:09:15;0.00;99.90
2022;DHT22;1015;49.756;6.994;2023-02-28T10:11:44;0.10;99.90
2022;DHT22;1015;49.756;6.994;2023-02-28T10:14:15;0.00;99.90
2022;DHT22;1015;49.756;6.994;2023-02-28T10:16:44;0.10;99.90
2022;DHT22;1015;49.756;6.994;2023-02-28T10:19:21;-0.10;99.90
2022;DHT22;1015;49.756;6.994;2023-02-28T10:21:55;0.00;99.90
2022;DHT22;1015;49.756;6.994;2023-02-28T10:24:29;0.10;99.90
2022;DHT22;1015;49.756;6.994;2023-02-28T10:27:00;0.10;99.90
2022;DHT22;1015;49.756;6.994;2023-02-28T10:29:29;0.20;99.90
2022;DHT22;1015;49.756;6.994;2023-02-28T10:32:00;0.10;99.90
2022;DHT22;1015;49.756;6.994;2023-02-28T10:34:29;0.20;99.90
2022;DHT22;1015;49.756;6.994;2023-02-28T10:36:58;0.40;99.90
2022;DHT22;1015;49.756;6.994;2023-02-28T10:39:38;0.50;99.90
2022;DHT22;1015;49.756;6.994;2023-02-28T10:42:19;0.30;99.90
2022;DHT22;1015;49.756;6.994;2023-02-28T10:44:47;0.20;99.90
2022;DHT22;1015;49.756;6.994;2023-02-28T10:47:15;0.20;99.90
2022;DHT22;1015;49.756;6.994;2023-02-28T10:49:49;0.30;99.90
2022;DHT22;1015;49.756;6.994;2023-02-28T10:52:33;0.30;99.90
2022;DHT22;1015;49.756;6.994;2023-02-28T10:55:20;0.30;99.90
2022;DHT22;1015;49.756;6.994;2023-02-28T10:57:48;0.30;99.90
2022;DHT22;1015;49.756;6.994;2023-02-28T11:00:19;0.30;99.90
2022;DHT22;1015;49.756;6.994;2023-02-28T11:02:47;0.50;99.90
2022;DHT22;1015;49.756;6.994;2023-02-28T11:05:30;0.60;99.90
2022;DHT22;1015;49.756;6.994;2023-02-28T11:08:04;0.60;99.90
2022;DHT22;1015;49.756;6.994;2023-02-28T11:10:33;0.60;99.90
2022;DHT22;1015;49.756;6.994;2023-02-28T11:13:01;0.20;99.90
2022;DHT22;1015;49.756;6.994;2023-02-28T11:15:30;0.20;99.90
2022;DHT22;1015;49.756;6.994;2023-02-28T11:18:00;0.40;99.90
2022;DHT22;1015;49.756;6.994;2023-02-28T11:20:30;0.50;99.90
2022;DHT22;1015;49.756;6.994;2023-02-28T11:22:59;0.60;99.90
2022;DHT22;1015;49.756;6.994;2023-02-28T11:25:30;0.60;99.90
2022;DHT22;1015;49.756;6.994;2023-02-28T11:27:58;0.30;99.90
2022;DHT22;1015;49.756;6.994;2023-02-28T11:30:31;0.50;99.90
2022;DHT22;1015;49.756;6.994;2023-02-28T11:32:58;0.60;99.90
2022;DHT22;1015;49.756;6.994;2023-02-28T11:35:30;0.80;99.90
2022;DHT22;1015;49.756;6.994;2023-02-28T11:37:57;1.00;99.90
2022;DHT22;1015;49.756;6.994;2023-02-28T11:40:31;0.70;99.90
2022;DHT22;1015;49.756;6.994;2023-02-28T11:43:09;0.80;99.90
2022;DHT22;1015;49.756;6.994;2023-02-28T11:45:45;1.00;99.90
2022;DHT22;1015;49.756;6.994;2023-02-28T11:48:21;0.90;99.90
2022;DHT22;1015;49.756;6.994;2023-02-28T11:51:01;1.20;99.90
2022;DHT22;1015;49.756;6.994;2023-02-28T11:53:50;1.20;99.90
2022;DHT22;1015;49.756;6.994;2023-02-28T11:56:23;1.10;99.90
2022;DHT22;1015;49.756;6.994;2023-02-28T11:58:59;1.10;99.90
2022;DHT22;1015;49.756;6.994;2023-02-28T12:01:38;1.30;99.90
2022;DHT22;1015;49.756;6.994;2023-02-28T12:04:20;1.50;99.90
2022;DHT22;1015;49.756;6.994;2023-02-28T12:06:57;1.60;99.90
2022;DHT22;1015;49.756;6.994;2023-02-28T12:09:50;1.30;99.90
2022;DHT22;1015;49.756;6.994;2023-02-28T12:12:30;1.30;99.90
2022;DHT22;1015;49.756;6.994;2023-02-28T12:15:16;1.50;99.90
2022;DHT22;1015;49.756;6.994;2023-02-28T12:17:55;1.20;99.90
2022;DHT22;1015;49.756;6.994;2023-02-28T12:20:33;1.20;99.90
2022;DHT22;1015;49.756;6.994;2023-02-28T12:23:21;1.50;99.90
2022;DHT22;1015;49.756;6.994;2023-02-28T12:26:01;1.10;99.90
2022;DHT22;1015;49.756;6.994;2023-02-28T12:28:33;1.20;99.90
2022;DHT22;1015;49.756;6.994;2023-02-28T12:31:03;1.30;99.90
2022;DHT22;1015;49.756;6.994;2023-02-28T12:33:34;1.60;99.90
2022;DHT22;1015;49.756;6.994;2023-02-28T12:36:05;1.90;99.90
2022;DHT22;1015;49.756;6.994;2023-02-28T12:38:40;1.80;99.90
2022;DHT22;1015;49.756;6.994;2023-02-28T12:41:13;2.00;99.90
2022;DHT22;1015;49.756;6.994;2023-02-28T12:43:44;2.10;99.90
2022;DHT22;1015;49.756;6.994;2023-02-28T12:46:15;1.80;99.90
2022;DHT22;1015;49.756;6.994;2023-02-28T12:48:46;1.70;99.90
2022;DHT22;1015;49.756;6.994;2023-02-28T12:51:15;1.80;99.90
2022;DHT22;1015;49.756;6.994;2023-02-28T12:54:04;1.70;99.90
2022;DHT22;1015;49.756;6.994;2023-02-28T12:56:42;1.50;99.90
2022;DHT22;1015;49.756;6.994;2023-02-28T12:59:17;1.70;99.90
2022;DHT22;1015;49.756;6.994;2023-02-28T13:02:02;1.60;99.90
2022;DHT22;1015;49.756;6.994;2023-02-28T13:04:57;1.30;99.90
2022;DHT22;1015;49.756;6.994;2023-02-28T13:10:38;1.40;99.90
2022;DHT22;1015;49.756;6.994;2023-02-28T13:13:06;1.50;99.90
2022;DHT22;1015;49.756;6.994;2023-02-28T13:15:39;1.80;99.90
2022;DHT22;1015;49.756;6.994;2023-02-28T13:18:31;1.90;99.90
2022;DHT22;1015;49.756;6.994;2023-02-28T13:20:59;1.80;99.90
2022;DHT22;1015;49.756;6.994;2023-02-28T13:23:56;1.80;99.90
2022;DHT22;1015;49.756;6.994;2023-02-28T13:29:42;1.90;99.90
2022;DHT22;1015;49.756;6.994;2023-02-28T13:32:37;2.00;99.90
2022;DHT22;1015;49.756;6.994;2023-02-28T13:35:35;2.00;99.90
2022;DHT22;1015;49.756;6.994;2023-02-28T13:38:39;2.20;99.90
2022;DHT22;1015;49.756;6.994;2023-02-28T13:41:43;2.40;99.90
2022;DHT22;1015;49.756;6.994;2023-02-28T13:44:12;2.20;99.90
2022;DHT22;1015;49.756;6.994;2023-02-28T13:49:40;2.00;99.90
2022;DHT22;1015;49.756;6.994;2023-02-28T13:52:14;1.80;99.90
2022;DHT22;1015;49.756;6.994;2023-02-28T13:55:01;2.10;99.90
2022;DHT22;1015;49.756;6.994;2023-02-28T13:57:42;1.90;99.90
2022;DHT22;1015;49.756;6.994;2023-02-28T14:00:28;1.80;99.90
2022;DHT22;1015;49.756;6.994;2023-02-28T14:03:09;1.90;99.90
2022;DHT22;1015;49.756;6.994;2023-02-28T14:05:38;1.80;99.90
2022;DHT22;1015;49.756;6.994;2023-02-28T14:08:11;1.90;99.90
2022;DHT22;1015;49.756;6.994;2023-02-28T14:10:44;2.00;99.90
2022;DHT22;1015;49.756;6.994;2023-02-28T14:15:57;2.10;99.90
2022;DHT22;1015;49.756;6.994;2023-02-28T14:18:27;2.10;99.90
2022;DHT22;1015;49.756;6.994;2023-02-28T14:21:01;1.90;99.90
2022;DHT22;1015;49.756;6.994;2023-02-28T14:26:29;1.70;99.90
2022;DHT22;1015;49.756;6.994;2023-02-28T14:29:19;1.80;99.90
2022;DHT22;1015;49.756;6.994;2023-02-28T14:31:58;1.80;99.90
2022;DHT22;1015;49.756;6.994;2023-02-28T14:34:42;2.00;99.90
2022;DHT22;1015;49.756;6.994;2023-02-28T14:37:15;1.90;99.90
2022;DHT22;1015;49.756;6.994;2023-02-28T14:39:43;2.00;99.90
2022;DHT22;1015;49.756;6.994;2023-02-28T14:42:28;2.10;99.90
2022;DHT22;1015;49.756;6.994;2023-02-28T14:44:56;2.00;99.90
2022;DHT22;1015;49.756;6.994;2023-02-28T14:47:23;1.80;99.90
2022;DHT22;1015;49.756;6.994;2023-02-28T14:49:52;1.80;99.90
2022;DHT22;1015;49.756;6.994;2023-02-28T14:52:22;1.90;99.90
2022;DHT22;1015;49.756;6.994;2023-02-28T14:54:53;1.90;99.90
2022;DHT22;1015;49.756;6.994;2023-02-28T14:57:22;2.00;99.90
2022;DHT22;1015;49.756;6.994;2023-02-28T14:59:58;2.00;99.90
2022;DHT22;1015;49.756;6.994;2023-02-28T15:02:26;2.00;99.90
2022;DHT22;1015;49.756;6.994;2023-02-28T15:04:57;2.00;99.90
2022;DHT22;1015;49.756;6.994;2023-02-28T15:07:26;1.90;99.90
2022;DHT22;1015;49.756;6.994;2023-02-28T15:10:15;1.90;99.90
2022;DHT22;1015;49.756;6.994;2023-02-28T15:12:49;1.90;99.90
2022;DHT22;1015;49.756;6.994;2023-02-28T15:15:18;1.80;99.90
2022;DHT22;1015;49.756;6.994;2023-02-28T15:17:49;1.90;99.90
2022;DHT22;1015;49.756;6.994;2023-02-28T15:20:18;1.90;99.90
2022;DHT22;1015;49.756;6.994;2023-02-28T15:22:47;1.80;99.90
2022;DHT22;1015;49.756;6.994;2023-02-28T15:25:19;1.80;99.90
2022;DHT22;1015;49.756;6.994;2023-02-28T15:27:49;1.80;99.90
2022;DHT22;1015;49.756;6.994;2023-02-28T15:30:19;1.80;99.90
2022;DHT22;1015;49.756;6.994;2023-02-28T15:33:02;1.90;99.90
2022;DHT22;1015;49.756;6.994;2023-02-28T15:35:32;2.00;99.90
2022;DHT22;1015;49.756;6.994;2023-02-28T15:38:03;2.00;99.90
2022;DHT22;1015;49.756;6.994;2023-02-28T15:40:33;1.90;99.90
2022;DHT22;1015;49.756;6.994;2023-02-28T15:43:07;1.90;99.90
2022;DHT22;1015;49.756;6.994;2023-02-28T15:45:43;1.90;99.90
2022;DHT22;1015;49.756;6.994;2023-02-28T15:48:22;1.80;99.90
2022;DHT22;1015;49.756;6.994;2023-02-28T15:50:52;1.70;99.90
2022;DHT22;1015;49.756;6.994;2023-02-28T15:53:23;1.70;99.90
2022;DHT22;1015;49.756;6.994;2023-02-28T15:55:56;1.70;99.90
2022;DHT22;1015;49.756;6.994;2023-02-28T15:58:25;1.60;99.90
2022;DHT22;1015;49.756;6.994;2023-02-28T16:01:07;1.60;99.90
2022;DHT22;1015;49.756;6.994;2023-02-28T16:03:44;1.60;99.90
2022;DHT22;1015;49.756;6.994;2023-02-28T16:06:32;1.60;99.90
2022;DHT22;1015;49.756;6.994;2023-02-28T16:09:00;1.50;99.90
2022;DHT22;1015;49.756;6.994;2023-02-28T16:11:28;1.50;99.90
2022;DHT22;1015;49.756;6.994;2023-02-28T16:13:56;1.40;99.90
2022;DHT22;1015;49.756;6.994;2023-02-28T16:16:24;1.40;99.90
2022;DHT22;1015;49.756;6.994;2023-02-28T16:18:52;1.40;99.90
2022;DHT22;1015;49.756;6.994;2023-02-28T16:21:20;1.30;99.90
2022;DHT22;1015;49.756;6.994;2023-02-28T16:23:47;1.30;99.90
2022;DHT22;1015;49.756;6.994;2023-02-28T16:26:21;1.30;99.90
2022;DHT22;1015;49.756;6.994;2023-02-28T16:28:48;1.30;99.90
2022;DHT22;1015;49.756;6.994;2023-02-28T16:31:16;1.20;99.90
2022;DHT22;1015;49.756;6.994;2023-02-28T16:33:44;1.20;99.90
2022;DHT22;1015;49.756;6.994;2023-02-28T16:36:16;1.10;99.90
2022;DHT22;1015;49.756;6.994;2023-02-28T16:38:43;1.00;99.90
2022;DHT22;1015;49.756;6.994;2023-02-28T16:41:13;1.00;99.90
2022;DHT22;1015;49.756;6.994;2023-02-28T16:43:47;0.90;99.90
2022;DHT22;1015;49.756;6.994;2023-02-28T16:46:15;0.90;99.90
2022;DHT22;1015;49.756;6.994;2023-02-28T16:48:42;0.80;99.90
2022;DHT22;1015;49.756;6.994;2023-02-28T16:51:12;0.80;99.90
2022;DHT22;1015;49.756;6.994;2023-02-28T16:53:39;0.80;99.90